Time;durP1;ratioP1;P1;durP2;ratioP2;P2;SDS_P1;SDS_P2;PMS_P1;PMS_P2;Temp;Humidity;BMP_temperature;BMP_pressure;BME280_temperature;BME280_humidity;BME280_pressure;Samples;Min_cycle;Max_cycle;Signal;HPM_P1;HPM_P2
2023/07/03 00:00:17;;;;;;;9.02;3.40;;;17.00;88.60;;;;;;4966273;28;20666;-59
2023/07/03 00:02:52;;;;;;;6.10;3.28;;;17.00;89.00;;;;;;4964900;28;20202;-59
2023/07/03 00:05:20;;;;;;;8.73;4.25;;;17.00;91.00;;;;;;4966944;28;20194;-59
2023/07/03 00:07:47;;;;;;;8.80;3.88;;;17.00;89.00;;;;;;4983753;28;20777;-60
2023/07/03 00:10:15;;;;;;;8.70;3.25;;;17.00;88.20;;;;;;4986800;28;20237;-59
2023/07/03 00:12:44;;;;;;;8.30;3.77;;;17.00;89.30;;;;;;4985744;28;20201;-75
2023/07/03 00:15:11;;;;;;;6.30;3.30;;;16.90;89.60;;;;;;4965658;28;20292;-61
2023/07/03 00:17:38;;;;;;;9.67;4.00;;;16.90;89.50;;;;;;4986297;28;20202;-62
2023/07/03 00:20:07;;;;;;;9.60;3.60;;;16.90;89.90;;;;;;4973569;28;20697;-61
2023/07/03 00:22:33;;;;;;;11.57;3.90;;;16.90;90.30;;;;;;4985664;28;20193;-62
2023/07/03 00:25:01;;;;;;;6.97;3.33;;;16.90;90.10;;;;;;4967098;28;20630;-64
2023/07/03 00:27:28;;;;;;;12.40;4.03;;;16.80;91.10;;;;;;4969377;28;20217;-62
2023/07/03 00:29:55;;;;;;;7.20;3.20;;;16.70;90.90;;;;;;4984232;28;20735;-69
2023/07/03 00:32:22;;;;;;;6.97;3.00;;;16.60;91.00;;;;;;4985576;28;20256;-62
2023/07/03 00:34:49;;;;;;;9.83;4.07;;;16.80;90.70;;;;;;4985887;28;21826;-62
2023/07/03 00:37:16;;;;;;;8.30;3.50;;;16.80;90.40;;;;;;4985395;28;20230;-62
2023/07/03 00:39:43;;;;;;;7.17;3.00;;;16.70;90.50;;;;;;4970977;28;20296;-61
2023/07/03 00:42:10;;;;;;;12.30;3.77;;;16.60;91.30;;;;;;4980884;28;20232;-61
2023/07/03 00:44:38;;;;;;;6.43;3.20;;;16.60;90.40;;;;;;4969695;28;20225;-61
2023/07/03 00:47:08;;;;;;;11.70;3.17;;;16.60;90.50;;;;;;4987447;28;20749;-61
2023/07/03 00:49:35;;;;;;;6.97;3.23;;;16.60;99.90;;;;;;4984156;28;20256;-61
2023/07/03 00:52:02;;;;;;;9.67;3.07;;;16.60;90.40;;;;;;4983045;28;20201;-61
2023/07/03 00:54:30;;;;;;;6.07;2.67;;;16.50;90.20;;;;;;4962837;28;20203;-62
2023/07/03 00:56:57;;;;;;;5.87;3.27;;;16.60;90.30;;;;;;4981660;28;20300;-61
2023/07/03 00:59:26;;;;;;;7.43;2.70;;;16.60;91.20;;;;;;4966049;28;20189;-64
2023/07/03 01:02:05;;;;;;;5.57;2.97;;;16.60;90.90;;;;;;4975225;28;20208;-62
2023/07/03 01:04:43;;;;;;;14.37;2.73;;;16.50;90.00;;;;;;4987774;28;20222;-62
2023/07/03 01:07:14;;;;;;;9.53;3.03;;;16.50;90.60;;;;;;4991254;28;20571;-62
2023/07/03 01:09:47;;;;;;;8.83;2.37;;;16.50;90.40;;;;;;4982832;28;20260;-63
2023/07/03 01:12:16;;;;;;;11.53;2.97;;;16.50;90.20;;;;;;4992226;28;20201;-62
2023/07/03 01:14:45;;;;;;;7.67;2.13;;;16.50;90.30;;;;;;4988899;28;20694;-61
2023/07/03 01:17:14;;;;;;;7.10;2.37;;;16.60;90.20;;;;;;4978919;28;20366;-60
2023/07/03 01:19:44;;;;;;;8.13;2.70;;;16.60;90.50;;;;;;4987006;28;20193;-60
2023/07/03 01:22:30;;;;;;;7.88;2.47;;;16.60;90.30;;;;;;4973045;28;20293;-62
2023/07/03 01:25:05;;;;;;;11.77;2.93;;;16.50;89.90;;;;;;4974762;28;20214;-62
2023/07/03 01:27:36;;;;;;;6.63;2.53;;;16.70;90.50;;;;;;4991928;28;20201;-69
2023/07/03 01:30:11;;;;;;;11.03;3.17;;;16.60;89.20;;;;;;4972343;28;20205;-65
2023/07/03 01:32:39;;;;;;;11.40;3.43;;;16.50;90.00;;;;;;4990150;28;20716;-63
2023/07/03 01:35:11;;;;;;;7.70;2.70;;;16.50;90.00;;;;;;4991204;28;20661;-63
2023/07/03 01:37:44;;;;;;;11.57;3.40;;;16.40;90.10;;;;;;4982141;28;20221;-62
2023/07/03 01:40:14;;;;;;;9.30;3.00;;;16.20;89.30;;;;;;4969444;28;20210;-62
2023/07/03 01:42:42;;;;;;;10.70;3.03;;;16.00;89.50;;;;;;4987525;28;20255;-62
2023/07/03 01:45:10;;;;;;;8.97;2.20;;;16.10;90.30;;;;;;4988230;28;20552;-63
2023/07/03 01:47:37;;;;;;;9.90;2.67;;;15.90;91.40;;;;;;4989534;28;20557;-61
2023/07/03 01:50:08;;;;;;;6.17;3.03;;;15.90;90.00;;;;;;4983572;28;20189;-61
2023/07/03 01:52:41;;;;;;;8.17;2.50;;;15.90;90.20;;;;;;4987168;28;20223;-62
2023/07/03 01:55:19;;;;;;;6.13;2.37;;;15.70;90.40;;;;;;4972576;28;20693;-61
2023/07/03 01:57:58;;;;;;;6.63;2.40;;;15.70;90.10;;;;;;4986130;28;20228;-61
2023/07/03 02:04:43;;;;;;;5.03;2.30;;;15.70;96.20;;;;;;4985721;28;20209;-69
2023/07/03 02:07:12;;;;;;;8.93;2.27;;;15.70;91.40;;;;;;4973773;28;20265;-69
2023/07/03 02:09:40;;;;;;;8.53;2.27;;;15.70;90.70;;;;;;4989300;28;20827;-61
2023/07/03 02:12:09;;;;;;;10.83;2.43;;;15.60;91.40;;;;;;4969117;28;20332;-61
2023/07/03 02:14:38;;;;;;;5.13;2.03;;;15.60;90.80;;;;;;4969244;28;20202;-62
2023/07/03 02:17:08;;;;;;;8.70;2.50;;;15.60;91.80;;;;;;4971505;28;20208;-62
2023/07/03 02:19:35;;;;;;;3.73;2.03;;;15.60;91.20;;;;;;4975049;28;20194;-61
2023/07/03 02:22:03;;;;;;;5.97;2.30;;;15.50;92.40;;;;;;4969504;28;20202;-61
2023/07/03 02:24:30;;;;;;;7.13;2.40;;;15.60;91.20;;;;;;4971314;28;20778;-61
2023/07/03 02:26:58;;;;;;;7.07;2.00;;;15.60;92.20;;;;;;4974125;28;20202;-61
2023/07/03 02:29:25;;;;;;;10.73;2.23;;;15.50;91.60;;;;;;4988513;28;20188;-61
2023/07/03 02:31:52;;;;;;;8.33;2.40;;;15.50;99.90;;;;;;4986965;28;20204;-61
2023/07/03 02:34:21;;;;;;;6.13;2.60;;;15.60;91.80;;;;;;4981445;28;20268;-62
2023/07/03 02:36:48;;;;;;;6.37;2.87;;;15.50;92.00;;;;;;4970256;28;20206;-60
2023/07/03 02:39:15;;;;;;;9.17;2.87;;;15.40;92.00;;;;;;4984404;28;20728;-63
2023/07/03 02:41:42;;;;;;;8.00;2.57;;;15.30;92.60;;;;;;4982940;28;20198;-61
2023/07/03 02:44:10;;;;;;;10.13;2.23;;;15.40;92.10;;;;;;4982731;28;20293;-60
2023/07/03 02:46:39;;;;;;;6.93;2.67;;;15.50;92.50;;;;;;4973867;28;20812;-60
2023/07/03 02:49:06;;;;;;;7.77;2.33;;;15.50;93.00;;;;;;4952659;28;20206;-60
2023/07/03 02:51:33;;;;;;;11.13;2.60;;;15.50;92.30;;;;;;4981708;28;20622;-61
2023/07/03 02:54:04;;;;;;;3.93;2.50;;;15.60;93.20;;;;;;4971440;28;20208;-62
2023/07/03 02:56:31;;;;;;;5.37;2.23;;;15.60;92.60;;;;;;4986803;28;20666;-62
2023/07/03 02:58:58;;;;;;;8.97;2.60;;;15.50;92.50;;;;;;4972710;28;20795;-63
2023/07/03 03:01:31;;;;;;;9.40;2.67;;;15.40;92.80;;;;;;4969627;28;20661;-61
2023/07/03 03:03:58;;;;;;;9.20;2.80;;;15.40;93.90;;;;;;4970742;28;20221;-62
2023/07/03 03:06:26;;;;;;;11.17;2.60;;;15.50;92.60;;;;;;4980641;28;20333;-61
2023/07/03 03:08:53;;;;;;;7.37;2.60;;;15.40;93.20;;;;;;4954299;28;20684;-61
2023/07/03 03:11:20;;;;;;;8.80;2.90;;;15.40;92.60;;;;;;4970701;28;20676;-61
2023/07/03 03:13:50;;;;;;;9.77;2.80;;;15.40;93.30;;;;;;4986619;28;20543;-69
2023/07/03 03:16:17;;;;;;;4.77;2.03;;;15.50;94.00;;;;;;4963097;28;20673;-69
2023/07/03 03:18:47;;;;;;;7.40;2.23;;;15.50;93.60;;;;;;4988050;28;20296;-70
2023/07/03 03:21:15;;;;;;;9.27;2.70;;;15.60;93.40;;;;;;4971155;28;20204;-69
2023/07/03 03:23:44;;;;;;;9.97;2.87;;;15.50;93.60;;;;;;4985986;28;20720;-69
2023/07/03 03:26:11;;;;;;;6.57;2.40;;;15.50;93.30;;;;;;4986596;28;20761;-70
2023/07/03 03:28:37;;;;;;;10.27;2.33;;;15.50;93.10;;;;;;4977231;28;20319;-69
2023/07/03 03:31:05;;;;;;;7.77;2.23;;;15.60;94.40;;;;;;4970456;28;20210;-69
2023/07/03 03:33:37;;;;;;;12.57;2.30;;;15.50;94.00;;;;;;4971418;28;20292;-67
2023/07/03 03:36:04;;;;;;;12.93;2.77;;;15.50;93.80;;;;;;4987475;28;20216;-66
2023/07/03 03:38:31;;;;;;;6.97;2.47;;;15.50;94.60;;;;;;4987737;28;20716;-69
2023/07/03 03:41:02;;;;;;;10.60;2.97;;;15.40;94.10;;;;;;4987167;28;20268;-69
2023/07/03 03:43:33;;;;;;;8.37;1.93;;;15.20;95.30;;;;;;4968386;28;20689;-69
2023/07/03 03:46:01;;;;;;;14.03;3.57;;;15.30;94.50;;;;;;4971057;28;20198;-68
2023/07/03 03:48:30;;;;;;;12.77;2.67;;;15.20;95.10;;;;;;4987517;28;20677;-68
2023/07/03 03:51:00;;;;;;;10.57;2.57;;;15.30;95.10;;;;;;4964109;28;20677;-68
2023/07/03 03:53:29;;;;;;;10.33;2.73;;;15.40;95.00;;;;;;4969895;28;20587;-67
2023/07/03 03:55:56;;;;;;;10.00;2.73;;;15.50;95.30;;;;;;4969438;28;20209;-67
2023/07/03 03:58:24;;;;;;;5.93;2.57;;;15.60;95.30;;;;;;4987143;28;20218;-65
2023/07/03 04:00:52;;;;;;;9.23;2.20;;;15.60;95.60;;;;;;4985752;28;20206;-67
2023/07/03 04:03:19;;;;;;;13.30;2.53;;;15.60;94.90;;;;;;4967589;28;20230;-67
2023/07/03 04:05:47;;;;;;;6.53;2.33;;;15.30;95.00;;;;;;4985941;28;20291;-65
2023/07/03 04:08:14;;;;;;;12.47;2.40;;;15.40;95.30;;;;;;4985168;28;20197;-64
2023/07/03 04:10:42;;;;;;;5.83;1.97;;;15.30;95.10;;;;;;4968157;28;20773;-63
2023/07/03 04:13:11;;;;;;;9.60;2.27;;;15.30;96.00;;;;;;4986583;28;20638;-64
2023/07/03 04:15:57;;;;;;;7.70;2.13;;;15.50;96.00;;;;;;4987986;28;20597;-66
2023/07/03 04:18:25;;;;;;;9.67;2.23;;;15.60;95.50;;;;;;4984617;28;20696;-63
2023/07/03 04:20:52;;;;;;;11.30;2.77;;;15.60;96.00;;;;;;4988103;28;20247;-66
2023/07/03 04:23:20;;;;;;;9.70;3.30;;;15.80;95.30;;;;;;4985749;28;20198;-66
2023/07/03 04:25:48;;;;;;;9.27;3.03;;;15.70;96.40;;;;;;4987022;28;20696;-66
2023/07/03 04:28:18;;;;;;;10.30;2.73;;;15.90;96.20;;;;;;4985967;28;20193;-66
2023/07/03 04:30:46;;;;;;;11.40;3.30;;;16.10;95.90;;;;;;4980379;28;20205;-65
2023/07/03 04:33:15;;;;;;;11.88;2.50;;;16.20;96.30;;;;;;4968622;28;20271;-65
2023/07/03 04:35:42;;;;;;;6.80;2.17;;;16.40;96.90;;;;;;4987908;28;20200;-66
2023/07/03 04:38:09;;;;;;;9.02;2.75;;;17.10;96.60;;;;;;4986364;28;20267;-66
2023/07/03 04:40:37;;;;;;;9.00;2.45;;;17.30;95.50;;;;;;4964680;28;20600;-59
2023/07/03 04:43:08;;;;;;;9.60;2.83;;;17.90;95.60;;;;;;4988656;28;20213;-65
2023/07/03 04:45:47;;;;;;;11.45;2.10;;;18.20;96.10;;;;;;4989465;28;20229;-66
2023/07/03 04:48:17;;;;;;;16.73;2.85;;;18.10;94.30;;;;;;4989471;28;20205;-66
2023/07/03 04:50:48;;;;;;;9.55;2.70;;;18.10;95.20;;;;;;4983145;28;20213;-68
2023/07/03 04:53:16;;;;;;;8.27;2.63;;;18.50;95.00;;;;;;4989684;28;20212;-71
2023/07/03 04:55:43;;;;;;;14.95;2.85;;;18.00;95.10;;;;;;4974037;28;20752;-66
2023/07/03 04:58:14;;;;;;;13.50;2.85;;;17.70;95.30;;;;;;4987636;28;20541;-65
2023/07/03 05:00:41;;;;;;;10.95;2.97;;;17.30;95.10;;;;;;4988133;28;20720;-66
2023/07/03 05:03:09;;;;;;;7.47;2.33;;;16.90;95.20;;;;;;4991727;28;20197;-66
2023/07/03 05:05:36;;;;;;;14.52;2.75;;;17.20;96.50;;;;;;4991559;28;20189;-65
2023/07/03 05:08:03;;;;;;;8.57;2.67;;;17.60;95.30;;;;;;4992354;28;20206;-65
2023/07/03 05:10:30;;;;;;;4.72;2.05;;;17.40;95.30;;;;;;4990252;28;20367;-66
2023/07/03 05:12:57;;;;;;;9.43;2.47;;;17.30;95.40;;;;;;4989258;28;20208;-66
2023/07/03 05:15:25;;;;;;;15.73;2.97;;;17.10;94.80;;;;;;4992295;28;20202;-67
2023/07/03 05:17:54;;;;;;;14.98;3.70;;;17.00;95.70;;;;;;4993305;28;20252;-66
2023/07/03 05:20:22;;;;;;;12.50;2.58;;;16.80;95.80;;;;;;4995531;28;20221;-66
2023/07/03 05:22:49;;;;;;;14.52;3.30;;;17.00;96.50;;;;;;4977523;28;20198;-67
2023/07/03 05:25:17;;;;;;;5.65;2.55;;;17.40;97.00;;;;;;4989557;28;20208;-66
2023/07/03 05:27:45;;;;;;;11.85;3.08;;;17.10;96.00;;;;;;4989029;28;20203;-66
2023/07/03 05:30:12;;;;;;;9.65;2.85;;;17.60;96.90;;;;;;4991220;28;20205;-65
2023/07/03 05:32:39;;;;;;;7.97;2.72;;;18.20;96.60;;;;;;4992382;28;20190;-66
2023/07/03 05:35:07;;;;;;;7.25;2.75;;;18.00;96.40;;;;;;4990950;28;20197;-67
2023/07/03 05:37:38;;;;;;;8.85;3.50;;;17.90;96.60;;;;;;4988497;28;20670;-67
2023/07/03 05:40:06;;;;;;;7.78;3.00;;;17.70;96.40;;;;;;4987362;28;20411;-68
2023/07/03 05:42:35;;;;;;;12.70;3.30;;;17.80;96.30;;;;;;4982625;28;20662;-69
2023/07/03 05:45:04;;;;;;;11.40;3.58;;;17.30;96.90;;;;;;4989367;28;20198;-69
2023/07/03 05:47:31;;;;;;;11.57;2.67;;;17.60;97.20;;;;;;4975705;28;20213;-69
2023/07/03 05:49:58;;;;;;;16.17;3.08;;;19.00;98.60;;;;;;4992554;28;20564;-67
2023/07/03 05:52:25;;;;;;;10.10;3.55;;;18.60;96.70;;;;;;4990656;28;20206;-71
2023/07/03 05:54:53;;;;;;;10.88;3.92;;;18.40;99.90;;;;;;4991769;28;20700;-69
2023/07/03 05:57:20;;;;;;;8.75;2.90;;;17.70;96.90;;;;;;4991945;28;20229;-67
2023/07/03 05:59:48;;;;;;;6.68;2.70;;;17.80;97.40;;;;;;4987578;28;20210;-67
2023/07/03 06:02:16;;;;;;;13.60;3.05;;;18.50;97.90;;;;;;4991960;28;20197;-66
2023/07/03 06:04:43;;;;;;;10.95;3.75;;;20.30;98.50;;;;;;4990707;28;20233;-66
2023/07/03 06:07:11;;;;;;;17.25;2.97;;;21.10;97.20;;;;;;4971899;28;20237;-68
2023/07/03 06:09:38;;;;;;;11.85;3.53;;;22.40;96.40;;;;;;4986738;28;20653;-68
2023/07/03 06:12:05;;;;;;;8.98;3.15;;;23.20;96.10;;;;;;4970264;28;20206;-68
2023/07/03 06:14:34;;;;;;;15.88;4.00;;;23.20;94.70;;;;;;4986541;28;20196;-69
2023/07/03 06:17:01;;;;;;;10.88;2.92;;;23.50;94.50;;;;;;4984474;28;20296;-69
2023/07/03 06:19:29;;;;;;;10.27;3.60;;;22.80;92.90;;;;;;4990751;28;20229;-69
2023/07/03 06:21:57;;;;;;;11.63;2.72;;;23.50;94.10;;;;;;4986160;28;20206;-69
2023/07/03 06:24:25;;;;;;;7.07;2.30;;;23.90;91.90;;;;;;4986268;28;20205;-69
2023/07/03 06:26:52;;;;;;;8.57;2.88;;;21.90;92.70;;;;;;4985546;28;20764;-61
2023/07/03 06:29:19;;;;;;;10.98;3.20;;;21.70;91.40;;;;;;4987143;28;20536;-61
2023/07/03 06:31:47;;;;;;;7.88;2.17;;;22.60;93.00;;;;;;4985656;28;20194;-61
2023/07/03 06:34:14;;;;;;;13.10;2.83;;;24.10;95.00;;;;;;4987377;28;20212;-61
2023/07/03 06:36:42;;;;;;;11.48;2.60;;;25.90;93.00;;;;;;4987430;28;20202;-61
2023/07/03 06:39:09;;;;;;;9.57;2.88;;;24.40;90.20;;;;;;4987872;28;20218;-61
2023/07/03 06:41:36;;;;;;;10.02;2.67;;;23.30;88.80;;;;;;4987049;28;20198;-61
2023/07/03 06:44:05;;;;;;;5.65;2.45;;;22.70;90.00;;;;;;4970494;28;20206;-61
2023/07/03 06:46:33;;;;;;;13.85;2.63;;;21.30;90.20;;;;;;4982737;28;20197;-60
2023/07/03 06:49:00;;;;;;;14.30;3.42;;;20.70;90.50;;;;;;4987325;28;20197;-71
2023/07/03 06:51:28;;;;;;;8.35;2.78;;;21.00;90.50;;;;;;4984421;28;20202;-70
2023/07/03 06:53:55;;;;;;;5.13;2.38;;;21.00;91.20;;;;;;4985275;28;20198;-69
2023/07/03 06:56:23;;;;;;;10.77;3.20;;;20.90;89.60;;;;;;4985777;28;20577;-70
2023/07/03 06:58:50;;;;;;;8.20;2.40;;;20.40;90.80;;;;;;4985121;28;20205;-71
2023/07/03 07:01:21;;;;;;;8.10;2.25;;;20.30;90.70;;;;;;4982267;28;20197;-69
2023/07/03 07:03:48;;;;;;;13.35;3.92;;;20.90;91.70;;;;;;4985311;28;20243;-69
2023/07/03 07:06:18;;;;;;;16.92;3.78;;;20.50;91.50;;;;;;4986355;28;20232;-69
2023/07/03 07:08:46;;;;;;;8.27;2.85;;;20.50;92.50;;;;;;4985475;28;20288;-71
2023/07/03 07:11:19;;;;;;;13.98;3.63;;;20.90;91.50;;;;;;4987313;28;20202;-62
2023/07/03 07:13:49;;;;;;;11.73;3.15;;;21.60;91.50;;;;;;4983276;28;20624;-63
2023/07/03 07:16:23;;;;;;;7.90;2.88;;;21.80;91.60;;;;;;4984536;28;20201;-62
2023/07/03 07:18:55;;;;;;;11.68;2.75;;;22.40;93.50;;;;;;4984129;28;20300;-61
2023/07/03 07:21:24;;;;;;;11.43;2.50;;;24.60;92.40;;;;;;4987453;28;20680;-60
2023/07/03 07:23:56;;;;;;;12.70;2.75;;;24.90;90.70;;;;;;4983361;28;21483;-60
2023/07/03 07:26:28;;;;;;;9.27;2.72;;;24.80;88.70;;;;;;4985395;28;20209;-60
2023/07/03 07:28:55;;;;;;;13.68;3.40;;;24.20;88.20;;;;;;4985069;28;20226;-60
2023/07/03 07:31:26;;;;;;;11.27;2.95;;;22.80;85.30;;;;;;4980853;28;20197;-60
2023/07/03 07:33:54;;;;;;;17.60;3.75;;;21.80;86.80;;;;;;4982127;28;20601;-60
2023/07/03 07:36:23;;;;;;;9.65;3.10;;;22.40;90.50;;;;;;4984857;28;20216;-61
2023/07/03 07:38:51;;;;;;;14.55;3.40;;;21.40;88.60;;;;;;4981815;28;20251;-62
2023/07/03 07:41:24;;;;;;;15.32;3.58;;;21.00;88.80;;;;;;4982149;28;20658;-61
2023/07/03 07:43:55;;;;;;;8.50;2.70;;;21.40;90.40;;;;;;4985292;28;20226;-61
2023/07/03 07:46:26;;;;;;;12.52;2.88;;;21.10;87.40;;;;;;4987236;28;20678;-62
2023/07/03 07:48:53;;;;;;;7.78;2.58;;;20.70;88.80;;;;;;4985646;28;20713;-63
2023/07/03 07:51:20;;;;;;;6.40;2.63;;;20.40;88.80;;;;;;4985431;28;20206;-60
2023/07/03 07:53:47;;;;;;;10.88;2.92;;;19.70;87.50;;;;;;4986139;28;20273;-62
2023/07/03 07:56:14;;;;;;;6.97;2.60;;;19.10;89.70;;;;;;4985181;28;20197;-61
2023/07/03 07:58:41;;;;;;;8.23;3.00;;;18.70;90.50;;;;;;4978477;28;20267;-61
2023/07/03 08:01:11;;;;;;;9.88;2.90;;;19.00;91.10;;;;;;4981836;28;20205;-61
2023/07/03 08:03:40;;;;;;;5.40;2.90;;;19.00;91.20;;;;;;4983675;28;20296;-61
2023/07/03 08:06:08;;;;;;;9.60;3.13;;;19.20;91.20;;;;;;4981623;28;20234;-61
2023/07/03 08:08:36;;;;;;;10.15;4.90;;;19.40;92.10;;;;;;4981611;28;20189;-68
2023/07/03 08:11:06;;;;;;;14.07;4.82;;;20.20;91.70;;;;;;4983941;28;20666;-65
2023/07/03 08:13:34;;;;;;;15.63;3.65;;;19.90;99.30;;;;;;4978823;28;20197;-61
2023/07/03 08:16:02;;;;;;;13.63;3.65;;;20.20;91.60;;;;;;4982993;28;20206;-61
2023/07/03 08:18:29;;;;;;;10.68;3.25;;;19.50;91.00;;;;;;4981164;28;20212;-60
2023/07/03 08:20:56;;;;;;;10.95;2.97;;;19.20;91.50;;;;;;4984816;28;20236;-61
2023/07/03 08:23:23;;;;;;;6.82;2.78;;;19.00;91.60;;;;;;4984476;28;20276;-66
2023/07/03 08:25:54;;;;;;;6.53;2.28;;;18.90;90.80;;;;;;4967228;28;20205;-61
2023/07/03 08:28:22;;;;;;;10.90;2.95;;;18.60;91.70;;;;;;4982969;28;20193;-62
2023/07/03 08:30:49;;;;;;;7.20;2.47;;;18.50;91.80;;;;;;4984346;28;20586;-60
2023/07/03 08:33:16;;;;;;;13.85;3.88;;;18.00;92.90;;;;;;4982893;28;20252;-60
2023/07/03 08:35:44;;;;;;;14.57;3.22;;;18.10;94.00;;;;;;4983789;28;20244;-61
2023/07/03 08:38:14;;;;;;;11.68;3.63;;;17.90;94.30;;;;;;4982060;28;20194;-61
2023/07/03 08:40:42;;;;;;;7.20;3.03;;;18.00;94.40;;;;;;4984094;28;20285;-61
2023/07/03 08:43:16;;;;;;;9.07;2.95;;;18.20;94.90;;;;;;4974024;28;20684;-61
2023/07/03 08:45:46;;;;;;;8.50;3.10;;;18.60;95.50;;;;;;4985045;28;20197;-61
2023/07/03 08:48:22;;;;;;;14.55;3.15;;;19.00;95.60;;;;;;4986091;28;20194;-61
2023/07/03 08:50:54;;;;;;;12.60;3.10;;;20.10;88.90;;;;;;4983884;28;20210;-68
2023/07/03 08:53:30;;;;;;;9.15;2.65;;;23.60;99.90;;;;;;4985511;28;20692;-61
2023/07/03 08:56:01;;;;;;;9.68;2.95;;;23.30;92.20;;;;;;4983739;28;20201;-62
2023/07/03 08:58:28;;;;;;;9.05;2.85;;;21.40;92.30;;;;;;4970894;28;20201;-61
2023/07/03 09:01:16;;;;;;;13.63;4.05;;;21.10;91.90;;;;;;4987804;28;20221;-61
2023/07/03 09:04:23;;;;;;;8.10;2.35;;;20.30;91.60;;;;;;4982794;28;20708;-61
2023/07/03 09:06:58;;;;;;;10.00;2.90;;;19.80;92.30;;;;;;4982307;28;20595;-61
2023/07/03 09:09:35;;;;;;;10.02;2.95;;;20.00;93.00;;;;;;4981933;28;20539;-61
2023/07/03 09:12:14;;;;;;;13.90;3.67;;;19.30;93.00;;;;;;4982210;28;20209;-61
2023/07/03 09:14:54;;;;;;;14.23;2.83;;;19.60;93.00;;;;;;4983164;28;20198;-61
2023/07/03 09:17:24;;;;;;;9.57;3.53;;;20.00;92.80;;;;;;4985002;28;20204;-61
2023/07/03 09:19:55;;;;;;;5.72;2.97;;;20.60;93.70;;;;;;4984678;28;20694;-61
2023/07/03 09:22:42;;;;;;;8.73;2.78;;;21.60;92.80;;;;;;4984221;28;20751;-60
2023/07/03 09:25:18;;;;;;;8.20;2.67;;;21.50;92.20;;;;;;4987030;28;20198;-60
2023/07/03 09:27:47;;;;;;;7.65;2.45;;;21.20;91.00;;;;;;4987610;28;20197;-60
2023/07/03 09:30:15;;;;;;;6.25;2.78;;;21.00;91.20;;;;;;4985549;28;20575;-60
2023/07/03 09:32:43;;;;;;;11.38;3.17;;;20.70;92.00;;;;;;4985582;28;20292;-61
2023/07/03 09:35:16;;;;;;;10.07;2.78;;;20.50;91.20;;;;;;4987229;28;20202;-60
2023/07/03 09:37:50;;;;;;;10.60;4.85;;;20.10;92.50;;;;;;4987951;28;20193;-60
2023/07/03 09:40:37;;;;;;;10.45;4.88;;;19.90;91.70;;;;;;4985032;28;20735;-61
2023/07/03 09:43:17;;;;;;;18.63;6.50;;;19.30;92.20;;;;;;4983790;28;20191;-61
2023/07/03 09:45:45;;;;;;;9.75;4.72;;;19.40;92.00;;;;;;4989444;28;20186;-60
2023/07/03 09:48:25;;;;;;;9.07;3.67;;;19.30;91.90;;;;;;4987058;28;20228;-61
2023/07/03 09:50:53;;;;;;;14.05;3.38;;;19.20;92.60;;;;;;4985947;28;20201;-61
2023/07/03 09:53:37;;;;;;;10.90;3.13;;;19.30;93.10;;;;;;4986095;28;20208;-61
2023/07/03 09:56:10;;;;;;;8.88;2.92;;;19.00;91.90;;;;;;4988444;28;20221;-60
2023/07/03 09:58:48;;;;;;;12.27;3.47;;;19.00;92.50;;;;;;4986539;28;20204;-60
2023/07/03 10:01:25;;;;;;;8.13;2.90;;;19.20;92.70;;;;;;4982296;28;20235;-60
2023/07/03 10:04:03;;;;;;;12.45;4.22;;;19.50;92.40;;;;;;4984013;28;20518;-61
2023/07/03 10:07:00;;;;;;;9.27;4.03;;;20.10;92.80;;;;;;4985427;28;20253;-60
2023/07/03 10:09:34;;;;;;;11.07;3.95;;;20.60;93.00;;;;;;4987083;28;20559;-60
2023/07/03 10:12:13;;;;;;;15.27;4.38;;;20.60;92.70;;;;;;4985930;28;20194;-61
2023/07/03 10:14:43;;;;;;;10.10;3.00;;;20.90;93.20;;;;;;4984076;28;20555;-61
2023/07/03 10:17:13;;;;;;;13.90;3.28;;;21.40;93.10;;;;;;4985959;28;20551;-61
2023/07/03 10:19:50;;;;;;;12.23;2.90;;;21.50;92.60;;;;;;4981418;28;20226;-60
2023/07/03 10:22:23;;;;;;;9.15;2.92;;;22.20;92.50;;;;;;4983575;28;20209;-61
2023/07/03 10:24:50;;;;;;;18.40;8.32;;;23.20;93.30;;;;;;4969268;28;20202;-61
2023/07/03 10:27:19;;;;;;;17.98;5.47;;;23.70;91.00;;;;;;4986151;28;20210;-60
2023/07/03 10:29:49;;;;;;;12.48;4.93;;;23.90;90.40;;;;;;4983454;28;20623;-61
2023/07/03 10:32:18;;;;;;;11.48;4.47;;;24.10;91.00;;;;;;4985815;28;20198;-61
2023/07/03 10:34:48;;;;;;;12.18;4.32;;;23.90;90.30;;;;;;4980982;28;20193;-59
2023/07/03 10:37:19;;;;;;;9.20;4.43;;;24.60;88.90;;;;;;4984665;28;20276;-62
2023/07/03 10:39:52;;;;;;;13.35;5.90;;;25.40;87.80;;;;;;4969449;28;20272;-60
2023/07/03 10:42:36;;;;;;;16.58;3.97;;;25.30;87.10;;;;;;4984844;28;20200;-60
2023/07/03 10:45:09;;;;;;;7.93;3.35;;;24.40;82.40;;;;;;4984382;28;20197;-60
2023/07/03 10:47:36;;;;;;;8.52;2.63;;;24.10;86.40;;;;;;4979394;28;20658;-62
2023/07/03 10:50:04;;;;;;;10.40;3.25;;;24.10;83.30;;;;;;4985137;28;20212;-63
2023/07/03 10:53:04;;;;;;;10.70;4.03;;;24.50;82.60;;;;;;4984493;28;20208;-60
2023/07/03 10:55:34;;;;;;;9.70;4.85;;;23.80;80.30;;;;;;4984710;28;20202;-61
2023/07/03 10:58:05;;;;;;;12.32;4.22;;;24.50;85.90;;;;;;4984051;28;20346;-62
2023/07/03 11:01:01;;;;;;;10.38;3.70;;;24.40;79.80;;;;;;4983558;28;20221;-59
2023/07/03 11:03:51;;;;;;;6.50;3.15;;;23.30;78.80;;;;;;4984603;28;20324;-61
2023/07/03 11:06:57;;;;;;;9.00;3.08;;;22.30;80.50;;;;;;4985579;28;20244;-62
2023/07/03 11:09:37;;;;;;;8.07;3.03;;;21.70;80.90;;;;;;4986195;28;20194;-62
2023/07/03 11:12:16;;;;;;;8.25;3.20;;;21.90;82.10;;;;;;4983935;28;20208;-61
2023/07/03 11:14:48;;;;;;;11.50;3.83;;;24.20;81.40;;;;;;4979476;28;20745;-60
2023/07/03 11:17:32;;;;;;;9.00;2.55;;;25.20;79.60;;;;;;4981815;28;20205;-60
2023/07/03 11:20:19;;;;;;;6.72;2.70;;;24.40;75.70;;;;;;4984833;28;20672;-60
2023/07/03 11:22:56;;;;;;;9.25;2.47;;;23.70;75.80;;;;;;4976384;28;20212;-60
2023/07/03 11:25:28;;;;;;;7.43;2.28;;;23.30;75.10;;;;;;4980251;28;20276;-62
2023/07/03 11:28:03;;;;;;;5.82;2.22;;;24.10;77.40;;;;;;4985212;28;20204;-60
2023/07/03 11:30:32;;;;;;;8.52;2.55;;;24.30;77.30;;;;;;4982174;28;20197;-61
2023/07/03 11:33:01;;;;;;;4.38;2.25;;;24.40;74.80;;;;;;4978033;28;20243;-62
2023/07/03 11:35:28;;;;;;;6.57;3.10;;;24.10;74.90;;;;;;4983007;28;20205;-60
2023/07/03 11:38:08;;;;;;;3.92;2.00;;;23.80;70.90;;;;;;4983686;28;20923;-60
2023/07/03 11:40:55;;;;;;;8.93;1.80;;;23.30;72.90;;;;;;4982968;28;20622;-63
2023/07/03 11:43:28;;;;;;;6.55;2.47;;;24.40;70.60;;;;;;4980919;28;20189;-60
2023/07/03 11:45:58;;;;;;;4.90;1.83;;;23.70;72.90;;;;;;4967089;28;20749;-60
2023/07/03 11:48:38;;;;;;;5.32;2.35;;;23.80;72.40;;;;;;4981351;28;20198;-64
2023/07/03 11:51:07;;;;;;;5.75;2.08;;;23.20;69.70;;;;;;4981883;28;21401;-60
2023/07/03 11:53:39;;;;;;;6.60;2.58;;;23.70;72.00;;;;;;4982312;28;20205;-61
2023/07/03 11:56:12;;;;;;;8.40;2.20;;;23.70;72.10;;;;;;4981259;28;20193;-62
2023/07/03 11:58:40;;;;;;;7.05;2.15;;;24.30;72.90;;;;;;4963451;28;20218;-62
2023/07/03 12:01:30;;;;;;;7.15;2.20;;;25.70;72.20;;;;;;4984719;28;20241;-61
2023/07/03 12:04:04;;;;;;;5.72;1.92;;;25.80;68.20;;;;;;4985205;28;20222;-61
2023/07/03 12:06:52;;;;;;;5.25;1.83;;;26.10;65.20;;;;;;4980687;28;20221;-60
2023/07/03 12:09:19;;;;;;;8.50;2.00;;;25.40;63.70;;;;;;4967875;28;20229;-67
2023/07/03 12:12:02;;;;;;;6.22;2.42;;;25.30;64.80;;;;;;4969415;28;20205;-63
2023/07/03 12:14:44;;;;;;;5.82;2.38;;;24.70;65.90;;;;;;4985311;28;20205;-61
2023/07/03 12:17:32;;;;;;;6.90;2.70;;;24.80;66.50;;;;;;4981617;28;20233;-60
2023/07/03 12:20:11;;;;;;;4.90;2.03;;;24.20;64.80;;;;;;4982343;28;20686;-60
2023/07/03 12:22:48;;;;;;;4.15;1.77;;;23.90;64.90;;;;;;4978031;28;20200;-60
2023/07/03 12:25:27;;;;;;;7.82;2.30;;;24.10;64.50;;;;;;4982213;28;20197;-59
2023/07/03 12:28:09;;;;;;;6.20;2.22;;;23.90;64.10;;;;;;4980844;28;20580;-69
2023/07/03 12:30:38;;;;;;;8.60;2.17;;;23.80;66.10;;;;;;4978643;28;21463;-62
2023/07/03 12:33:06;;;;;;;6.75;2.03;;;23.40;65.00;;;;;;4980351;28;20208;-60
2023/07/03 12:35:35;;;;;;;5.70;2.28;;;22.90;66.40;;;;;;4966723;28;20206;-62
2023/07/03 12:38:08;;;;;;;7.55;2.47;;;23.10;65.20;;;;;;4983010;28;20252;-62
2023/07/03 12:40:43;;;;;;;6.82;1.90;;;22.90;64.80;;;;;;4979730;28;20216;-61
2023/07/03 12:43:14;;;;;;;6.25;2.00;;;22.10;63.30;;;;;;4979679;28;20275;-61
2023/07/03 12:45:51;;;;;;;6.13;2.55;;;21.90;64.70;;;;;;4982187;28;20224;-61
2023/07/03 12:48:20;;;;;;;7.57;2.53;;;22.30;65.20;;;;;;4981481;28;20208;-64
2023/07/03 12:50:57;;;;;;;6.72;2.35;;;21.80;62.70;;;;;;4965610;28;20556;-61
2023/07/03 12:53:32;;;;;;;6.20;2.53;;;22.10;66.60;;;;;;4964981;28;20197;-60
2023/07/03 12:56:03;;;;;;;5.68;1.92;;;21.70;64.70;;;;;;4979813;28;20212;-61
2023/07/03 12:58:31;;;;;;;4.70;2.20;;;21.60;64.80;;;;;;4963296;28;20210;-60
2023/07/03 13:01:00;;;;;;;4.50;2.20;;;22.30;67.10;;;;;;4983655;28;20237;-58
2023/07/03 13:03:27;;;;;;;3.55;2.33;;;22.10;67.60;;;;;;4982754;28;20287;-60
2023/07/03 13:05:54;;;;;;;6.05;2.20;;;21.90;66.40;;;;;;4984499;28;20229;-59